createdAt,value
2019-03-03T00:01:10.599Z,79.67
2019-03-03T00:03:56.917Z,79.85
2019-03-03T00:06:46.468Z,79.90
2019-03-03T00:09:33.866Z,79.73
2019-03-03T00:12:21.792Z,79.66
2019-03-03T00:15:08.184Z,79.68
2019-03-03T00:17:54.888Z,79.80
2019-03-03T00:20:42.819Z,79.50
2019-03-03T00:23:30.779Z,79.62
2019-03-03T00:26:17.525Z,79.77
2019-03-03T00:29:03.915Z,79.46
2019-03-03T00:31:50.169Z,80.08
2019-03-03T00:34:36.660Z,79.75
2019-03-03T00:37:29.473Z,79.93
2019-03-03T00:40:28.697Z,79.62
2019-03-03T00:43:34.108Z,79.84
2019-03-03T00:46:41.836Z,79.84
2019-03-03T00:49:41.105Z,79.83
2019-03-03T00:52:37.472Z,79.77
2019-03-03T00:55:38.971Z,79.87
2019-03-03T00:58:45.348Z,79.50
2019-03-03T01:01:39.972Z,79.43
2019-03-03T01:04:48.576Z,79.35
2019-03-03T01:07:46.589Z,78.90
2019-03-03T01:11:10.664Z,78.34
2019-03-03T01:14:17.012Z,78.12
2019-03-03T01:17:32.281Z,77.55
2019-03-03T01:20:26.876Z,77.78
2019-03-03T01:23:29.269Z,77.25
2019-03-03T01:26:15.306Z,77.10
2019-03-03T01:29:01.800Z,76.91
2019-03-03T01:31:48.353Z,76.62
2019-03-03T01:34:36.648Z,76.42
2019-03-03T01:37:22.559Z,76.26
2019-03-03T01:40:12.068Z,76.02
2019-03-03T01:42:58.288Z,76.02
2019-03-03T01:45:44.352Z,75.80
2019-03-03T01:48:30.692Z,75.71
2019-03-03T01:51:16.997Z,75.92
2019-03-03T01:54:03.292Z,75.42
2019-03-03T01:56:52.084Z,75.27
2019-03-03T01:59:38.260Z,75.18
2019-03-03T02:02:24.275Z,75.29
2019-03-03T02:05:12.412Z,75.48
2019-03-03T02:08:00.777Z,75.47
2019-03-03T02:10:47.029Z,75.37
2019-03-03T02:13:33.275Z,75.27
2019-03-03T02:16:19.398Z,75.37
2019-03-03T02:19:05.692Z,75.13
2019-03-03T02:21:52.221Z,75.24
2019-03-03T02:24:38.523Z,75.17
2019-03-03T02:27:24.727Z,74.68
2019-03-03T02:30:14.206Z,74.74
2019-03-03T02:32:59.993Z,74.64
2019-03-03T02:35:48.499Z,74.64
2019-03-03T02:38:34.853Z,74.35
2019-03-03T02:41:20.886Z,74.23
2019-03-03T02:44:06.745Z,73.58
2019-03-03T02:46:52.965Z,73.56
2019-03-03T02:49:38.934Z,73.39
2019-03-03T02:52:24.759Z,73.68
2019-03-03T02:55:11.930Z,73.71
2019-03-03T02:57:58.141Z,73.40
2019-03-03T03:00:52.244Z,73.70
2019-03-03T03:03:38.605Z,73.86
2019-03-03T03:06:42.679Z,73.64
2019-03-03T03:09:33.849Z,73.67
2019-03-03T03:12:42.205Z,73.69
2019-03-03T03:15:45.872Z,73.80
2019-03-03T03:18:57.879Z,73.82
2019-03-03T03:22:08.294Z,73.78
2019-03-03T03:25:18.618Z,73.75
2019-03-03T03:28:12.892Z,73.74
2019-03-03T03:31:11.657Z,74.04
2019-03-03T03:34:11.820Z,73.81
2019-03-03T03:37:02.858Z,73.87
2019-03-03T03:40:09.344Z,74.11
2019-03-03T03:43:02.555Z,74.22
2019-03-03T03:46:10.989Z,74.11
2019-03-03T03:49:08.409Z,74.28
2019-03-03T03:52:12.524Z,74.21
2019-03-03T03:55:18.222Z,74.41
2019-03-03T03:58:17.997Z,74.37
2019-03-03T04:01:16.051Z,74.41
2019-03-03T04:04:20.255Z,74.29
2019-03-03T04:07:24.275Z,74.44
2019-03-03T04:10:22.953Z,74.73
2019-03-03T04:13:40.734Z,74.84
2019-03-03T04:16:52.915Z,74.88
2019-03-03T04:19:45.706Z,74.84
2019-03-03T04:22:43.845Z,75.09
2019-03-03T04:25:55.043Z,75.33
2019-03-03T04:28:59.530Z,75.25
2019-03-03T04:32:02.908Z,75.20
2019-03-03T04:35:20.693Z,75.30
2019-03-03T04:38:13.454Z,75.39
2019-03-03T04:41:16.400Z,75.41
2019-03-03T04:44:16.618Z,75.53
2019-03-03T04:47:19.520Z,75.37
2019-03-03T04:50:15.899Z,75.24
2019-03-03T04:53:34.025Z,75.14
2019-03-03T04:56:42.394Z,75.23
2019-03-03T04:59:43.966Z,75.25
2019-03-03T05:02:58.144Z,75.01
2019-03-03T05:06:00.262Z,75.12
2019-03-03T05:09:06.023Z,75.10
2019-03-03T05:12:37.975Z,75.10
2019-03-03T05:15:43.321Z,75.00
2019-03-03T05:18:49.170Z,76.36
2019-03-03T05:21:35.653Z,75.98
2019-03-03T05:24:22.441Z,76.17
2019-03-03T05:27:09.084Z,76.78
2019-03-03T05:29:55.041Z,77.33
2019-03-03T05:32:41.025Z,77.88
2019-03-03T05:35:27.174Z,78.48
2019-03-03T05:38:13.262Z,78.94
2019-03-03T05:40:59.430Z,79.41
2019-03-03T05:43:45.838Z,80.43
2019-03-03T05:46:32.034Z,81.16
2019-03-03T05:49:17.854Z,81.20
2019-03-03T05:52:04.339Z,81.17
2019-03-03T05:54:50.466Z,80.87
2019-03-03T05:57:36.477Z,80.03
2019-03-03T06:00:22.854Z,80.54
2019-03-03T06:03:11.675Z,80.48
2019-03-03T06:05:57.682Z,80.90
2019-03-03T06:08:44.037Z,80.76
2019-03-03T06:11:29.954Z,81.03
2019-03-03T06:14:16.521Z,81.09
2019-03-03T06:17:02.871Z,81.09
2019-03-03T06:19:49.013Z,81.21
2019-03-03T06:22:35.162Z,81.59
2019-03-03T06:25:21.299Z,81.96
2019-03-03T06:28:07.283Z,81.88
2019-03-03T06:30:54.886Z,82.37
2019-03-03T06:33:41.058Z,81.92
2019-03-03T06:36:27.856Z,81.80
2019-03-03T06:39:14.196Z,81.78
2019-03-03T06:42:00.230Z,81.25
2019-03-03T06:44:46.559Z,81.34
2019-03-03T06:47:33.147Z,81.04
2019-03-03T06:50:19.442Z,80.92
2019-03-03T06:53:05.452Z,81.30
2019-03-03T06:55:52.075Z,81.74
2019-03-03T06:58:38.090Z,81.99
2019-03-03T07:01:24.664Z,82.87
2019-03-03T07:04:11.291Z,83.00
2019-03-03T07:06:59.159Z,83.42
2019-03-03T07:09:45.411Z,83.77
2019-03-03T07:12:34.681Z,84.24
2019-03-03T07:15:20.713Z,84.57
2019-03-03T07:18:06.765Z,84.89
2019-03-03T07:20:53.656Z,85.44
2019-03-03T07:23:40.123Z,86.06
2019-03-03T07:26:26.352Z,86.21
2019-03-03T07:29:15.265Z,86.47
2019-03-03T07:32:01.595Z,86.74
2019-03-03T07:34:47.383Z,87.32
2019-03-03T07:37:34.066Z,87.28
2019-03-03T07:40:20.131Z,87.56
2019-03-03T07:43:06.035Z,87.97
2019-03-03T07:45:52.436Z,88.28
2019-03-03T07:48:42.823Z,88.18
2019-03-03T07:51:30.231Z,88.62
2019-03-03T07:54:16.790Z,88.66
2019-03-03T07:57:03.976Z,89.43
2019-03-03T07:59:50.771Z,89.85
2019-03-03T08:02:36.798Z,90.27
2019-03-03T08:05:22.855Z,90.44
2019-03-03T08:08:09.682Z,90.55
2019-03-03T08:10:55.756Z,90.44
2019-03-03T08:13:42.148Z,90.30
2019-03-03T08:16:28.844Z,90.15
2019-03-03T08:19:14.709Z,90.38
2019-03-03T08:22:00.720Z,89.94
2019-03-03T08:24:51.436Z,90.06
2019-03-03T08:27:40.370Z,90.04
2019-03-03T08:30:26.547Z,90.30
2019-03-03T08:33:13.058Z,90.46
2019-03-03T08:36:02.029Z,90.47
2019-03-03T08:38:48.136Z,90.83
2019-03-03T08:41:36.334Z,91.08
2019-03-03T08:44:35.220Z,91.25
2019-03-03T08:47:39.016Z,91.56
2019-03-03T08:50:38.920Z,92.00
2019-03-03T08:53:45.232Z,91.92
2019-03-03T08:56:51.110Z,92.60
2019-03-03T09:00:02.183Z,93.14
2019-03-03T09:02:57.080Z,93.25
2019-03-03T09:06:04.263Z,93.27
2019-03-03T09:08:59.336Z,93.45
2019-03-03T09:12:04.897Z,93.64
2019-03-03T09:15:09.207Z,93.69
2019-03-03T09:18:30.056Z,93.13
2019-03-03T09:21:27.451Z,93.57
2019-03-03T09:24:39.393Z,93.40
2019-03-03T09:27:43.373Z,93.66
2019-03-03T09:30:55.401Z,93.86
2019-03-03T09:34:00.936Z,93.66
2019-03-03T09:37:06.990Z,94.25
2019-03-03T09:40:12.672Z,93.94
2019-03-03T09:43:24.577Z,93.96
2019-03-03T09:46:37.079Z,93.87
2019-03-03T09:49:43.230Z,93.84
2019-03-03T09:52:39.668Z,93.76
2019-03-03T09:55:59.392Z,93.84
2019-03-03T09:59:09.540Z,93.97
2019-03-03T10:02:13.762Z,94.12
2019-03-03T10:05:25.633Z,94.41
2019-03-03T10:08:21.582Z,94.55
2019-03-03T10:11:29.345Z,94.34
2019-03-03T10:14:44.237Z,94.31
2019-03-03T10:17:56.270Z,94.57
2019-03-03T10:21:00.584Z,94.27
2019-03-03T10:24:21.016Z,94.20
2019-03-03T10:27:30.194Z,93.96
2019-03-03T10:30:36.051Z,93.92
2019-03-03T10:33:48.623Z,93.66
2019-03-03T10:36:55.889Z,93.78
2019-03-03T10:40:01.602Z,93.82
2019-03-03T10:43:09.817Z,94.15
2019-03-03T10:46:21.445Z,94.09
2019-03-03T10:49:15.938Z,94.31
2019-03-03T10:52:09.915Z,94.16
2019-03-03T10:55:12.330Z,94.04
2019-03-03T10:58:18.397Z,93.87
2019-03-03T11:01:37.563Z,93.89
2019-03-03T11:04:42.428Z,93.65
2019-03-03T11:07:49.442Z,93.87
2019-03-03T11:11:08.029Z,93.62
2019-03-03T11:14:15.426Z,93.33
2019-03-03T11:17:25.827Z,93.38
2019-03-03T11:20:40.341Z,93.44
2019-03-03T11:23:44.964Z,93.26
2019-03-03T11:26:52.601Z,93.18
2019-03-03T11:30:07.148Z,93.28
2019-03-03T11:33:02.028Z,93.40
2019-03-03T11:36:03.714Z,93.41
2019-03-03T11:39:13.197Z,93.36
2019-03-03T11:42:22.763Z,93.41
2019-03-03T11:45:24.229Z,93.14
2019-03-03T11:48:23.464Z,93.27
2019-03-03T11:51:34.975Z,93.65
2019-03-03T11:54:25.163Z,93.73
2019-03-03T11:57:24.839Z,94.03
2019-03-03T12:00:36.974Z,93.77
2019-03-03T12:03:44.274Z,94.02
2019-03-03T12:06:44.950Z,93.73
2019-03-03T12:09:53.647Z,94.05
2019-03-03T12:13:04.591Z,93.70
2019-03-03T12:16:10.369Z,93.90
2019-03-03T12:19:31.521Z,93.76
2019-03-03T12:22:32.769Z,93.10
2019-03-03T12:25:37.741Z,93.26
2019-03-03T12:28:41.553Z,93.25
2019-03-03T12:31:43.433Z,92.81
2019-03-03T12:34:36.432Z,92.37
2019-03-03T12:37:45.576Z,92.48
2019-03-03T12:40:45.102Z,92.74
2019-03-03T12:43:53.521Z,93.14
2019-03-03T12:47:04.653Z,92.89
2019-03-03T12:50:28.803Z,93.09
2019-03-03T12:53:24.490Z,93.10
2019-03-03T12:56:31.009Z,92.56
2019-03-03T12:59:54.524Z,92.68
2019-03-03T13:02:53.934Z,92.80
2019-03-03T13:05:51.087Z,92.37
2019-03-03T13:09:19.276Z,91.97
2019-03-03T13:12:15.195Z,92.14
2019-03-03T13:15:10.536Z,92.00
2019-03-03T13:18:06.915Z,92.03
2019-03-03T13:21:15.720Z,92.09
2019-03-03T13:24:18.450Z,91.66
2019-03-03T13:27:25.915Z,91.68
2019-03-03T13:30:33.221Z,91.76
2019-03-03T13:33:41.059Z,91.38
2019-03-03T13:36:45.058Z,91.84
2019-03-03T13:39:55.042Z,91.72
2019-03-03T13:42:58.255Z,91.69
2019-03-03T13:45:44.631Z,92.10
2019-03-03T13:48:36.940Z,92.13
2019-03-03T13:51:25.119Z,92.05
2019-03-03T13:54:11.151Z,92.07
2019-03-03T13:56:59.230Z,92.58
2019-03-03T13:59:47.563Z,92.60
2019-03-03T14:02:33.916Z,93.09
2019-03-03T14:05:23.819Z,93.10
2019-03-03T14:08:09.850Z,92.95
2019-03-03T14:10:55.873Z,93.17
2019-03-03T14:13:42.040Z,93.34
2019-03-03T14:16:31.580Z,93.10
2019-03-03T14:19:18.537Z,93.45
2019-03-03T14:22:07.451Z,93.26
2019-03-03T14:24:53.590Z,93.42
2019-03-03T14:27:40.180Z,93.49
2019-03-03T14:30:29.834Z,93.68
2019-03-03T14:33:16.601Z,93.68
2019-03-03T14:36:03.188Z,93.76
2019-03-03T14:38:49.305Z,93.81
2019-03-03T14:41:35.827Z,93.89
2019-03-03T14:44:22.497Z,93.89
2019-03-03T14:47:09.081Z,93.76
2019-03-03T14:49:55.397Z,94.04
2019-03-03T14:52:44.024Z,94.40
2019-03-03T14:55:36.175Z,93.93
2019-03-03T14:58:24.060Z,94.12
2019-03-03T15:01:10.807Z,93.98
2019-03-03T15:04:04.823Z,94.01
2019-03-03T15:06:51.255Z,94.42
2019-03-03T15:09:37.782Z,94.28
2019-03-03T15:12:24.234Z,94.19
2019-03-03T15:15:10.844Z,94.15
2019-03-03T15:17:57.440Z,94.06
2019-03-03T15:20:44.025Z,94.29
2019-03-03T15:23:36.408Z,94.23
2019-03-03T15:26:25.509Z,94.19
2019-03-03T15:29:15.037Z,93.97
2019-03-03T15:32:01.486Z,93.91
2019-03-03T15:34:47.859Z,93.91
2019-03-03T15:37:33.947Z,93.69
2019-03-03T15:40:23.636Z,93.62
2019-03-03T15:43:10.756Z,93.44
2019-03-03T15:45:58.672Z,92.70
2019-03-03T15:48:49.669Z,92.33
2019-03-03T15:51:35.651Z,92.15
2019-03-03T15:54:24.385Z,91.80
2019-03-03T15:57:12.227Z,91.60
2019-03-03T15:59:58.127Z,91.25
2019-03-03T16:02:50.369Z,90.86
2019-03-03T16:05:39.380Z,90.45
2019-03-03T16:08:28.028Z,90.31
2019-03-03T16:11:23.184Z,89.84
2019-03-03T16:14:09.667Z,89.71
2019-03-03T16:16:55.923Z,89.51
2019-03-03T16:19:44.801Z,89.38
2019-03-03T16:22:30.827Z,89.03
2019-03-03T16:25:21.832Z,88.69
2019-03-03T16:28:11.143Z,88.83
2019-03-03T16:30:59.441Z,88.26
2019-03-03T16:33:45.760Z,88.20
2019-03-03T16:36:33.543Z,87.70
2019-03-03T16:39:21.708Z,87.65
2019-03-03T16:42:08.140Z,87.07
2019-03-03T16:44:54.747Z,87.44
2019-03-03T16:47:42.179Z,86.63
2019-03-03T16:50:28.343Z,86.36
2019-03-03T16:53:17.882Z,86.71
2019-03-03T16:56:03.982Z,86.51
2019-03-03T16:58:51.692Z,86.49
2019-03-03T17:01:40.359Z,85.68
2019-03-03T17:04:26.495Z,86.25
2019-03-03T17:07:13.242Z,86.19
2019-03-03T17:10:00.310Z,85.97
2019-03-03T17:12:46.681Z,86.01
2019-03-03T17:15:33.205Z,85.78
2019-03-03T17:18:19.702Z,85.20
2019-03-03T17:21:05.695Z,85.21
2019-03-03T17:23:51.570Z,84.78
2019-03-03T17:26:39.234Z,84.19
2019-03-03T17:29:28.744Z,84.24
2019-03-03T17:32:18.752Z,84.70
2019-03-03T17:35:12.587Z,84.67
2019-03-03T17:37:59.434Z,83.94
2019-03-03T17:40:45.744Z,83.74
2019-03-03T17:43:33.159Z,83.99
2019-03-03T17:46:23.510Z,84.00
2019-03-03T17:49:11.435Z,83.66
2019-03-03T17:51:59.439Z,83.81
2019-03-03T17:54:45.888Z,83.72
2019-03-03T17:57:32.422Z,83.79
2019-03-03T18:00:20.546Z,83.53
2019-03-03T18:03:08.086Z,83.69
2019-03-03T18:05:56.012Z,83.77
2019-03-03T18:08:45.307Z,83.24
2019-03-03T18:11:32.777Z,83.52
2019-03-03T18:14:21.304Z,82.66
2019-03-03T18:17:07.627Z,82.70
2019-03-03T18:19:55.060Z,82.69
2019-03-03T18:22:44.239Z,82.86
2019-03-03T18:25:30.734Z,83.13
2019-03-03T18:28:17.085Z,82.21
2019-03-03T18:31:08.405Z,81.97
2019-03-03T18:33:59.530Z,81.93
2019-03-03T18:36:47.148Z,82.01
2019-03-03T18:39:38.579Z,82.30
2019-03-03T18:42:27.222Z,81.85
2019-03-03T18:45:16.160Z,81.10
2019-03-03T18:48:04.846Z,80.82
2019-03-03T18:50:53.405Z,80.76
2019-03-03T18:53:43.963Z,80.89
2019-03-03T18:56:32.014Z,80.67
2019-03-03T18:59:21.794Z,80.63
2019-03-03T19:02:09.078Z,80.20
2019-03-03T19:04:56.602Z,80.02
2019-03-03T19:07:48.284Z,80.05
2019-03-03T19:10:34.673Z,80.10
2019-03-03T19:13:24.123Z,80.17
2019-03-03T19:16:15.121Z,79.73
2019-03-03T19:19:04.293Z,79.66
2019-03-03T19:21:53.428Z,79.68
2019-03-03T19:24:41.508Z,79.42
2019-03-03T19:27:37.945Z,79.35
2019-03-03T19:30:33.208Z,79.48
2019-03-03T19:33:52.266Z,79.42
2019-03-03T19:36:38.040Z,78.94
2019-03-03T19:39:24.135Z,78.82
2019-03-03T19:42:10.882Z,78.59
2019-03-03T19:44:57.116Z,78.25
2019-03-03T19:47:43.588Z,78.76
2019-03-03T19:50:34.054Z,78.80
2019-03-03T19:53:27.612Z,78.91
2019-03-03T19:56:15.216Z,78.44
2019-03-03T19:59:06.128Z,78.30
2019-03-03T20:01:54.990Z,78.27
2019-03-03T20:04:43.601Z,77.99
2019-03-03T20:07:31.774Z,77.75
2019-03-03T20:10:21.046Z,77.98
2019-03-03T20:13:10.224Z,77.96
2019-03-03T20:15:56.709Z,77.58
2019-03-03T20:18:42.792Z,77.74
2019-03-03T20:21:33.952Z,77.69
2019-03-03T20:24:20.573Z,77.12
2019-03-03T20:27:09.433Z,77.11
2019-03-03T20:29:57.902Z,77.02
2019-03-03T20:32:44.740Z,76.73
2019-03-03T20:35:33.378Z,76.56
2019-03-03T20:38:19.332Z,76.53
2019-03-03T20:41:06.504Z,76.29
2019-03-03T20:43:52.711Z,76.97
2019-03-03T20:46:44.361Z,77.66
2019-03-03T20:49:32.067Z,77.43
2019-03-03T20:52:18.233Z,77.39
2019-03-03T20:55:05.290Z,77.25
2019-03-03T20:57:51.602Z,77.01
2019-03-03T21:00:40.045Z,76.88
2019-03-03T21:03:26.491Z,77.81
2019-03-03T21:06:13.097Z,77.96
2019-03-03T21:08:59.354Z,77.34
2019-03-03T21:11:45.934Z,77.58
2019-03-03T21:14:32.031Z,77.15
2019-03-03T21:17:18.505Z,76.96
2019-03-03T21:20:05.775Z,77.15
2019-03-03T21:22:52.020Z,77.33
2019-03-03T21:25:41.234Z,77.49
2019-03-03T21:28:27.171Z,77.69
2019-03-03T21:31:13.563Z,77.68
2019-03-03T21:34:03.242Z,77.78
2019-03-03T21:36:52.439Z,77.85
2019-03-03T21:39:40.398Z,78.24
2019-03-03T21:42:27.214Z,77.86
2019-03-03T21:45:15.059Z,78.31
2019-03-03T21:48:01.178Z,78.60
2019-03-03T21:50:50.703Z,78.16
2019-03-03T21:53:39.609Z,78.35
2019-03-03T21:56:25.550Z,78.35
2019-03-03T21:59:11.811Z,78.86
2019-03-03T22:01:57.970Z,78.96
2019-03-03T22:04:47.087Z,78.99
2019-03-03T22:07:33.625Z,79.08
2019-03-03T22:10:28.641Z,79.23
2019-03-03T22:13:14.581Z,79.29
2019-03-03T22:16:00.593Z,79.34
2019-03-03T22:18:46.584Z,79.10
2019-03-03T22:21:33.092Z,79.43
2019-03-03T22:24:19.612Z,79.18
2019-03-03T22:27:05.972Z,78.65
2019-03-03T22:29:52.180Z,78.93
2019-03-03T22:32:38.594Z,78.27
2019-03-03T22:35:25.559Z,78.77
2019-03-03T22:38:12.036Z,78.89
2019-03-03T22:40:58.975Z,78.69
2019-03-03T22:43:45.079Z,78.50
2019-03-03T22:46:31.133Z,78.48
2019-03-03T22:49:20.288Z,78.11
2019-03-03T22:52:06.412Z,78.05
2019-03-03T22:54:53.564Z,77.59
2019-03-03T22:57:42.619Z,77.70
2019-03-03T23:00:53.004Z,77.51
2019-03-03T23:03:49.988Z,77.86
2019-03-03T23:06:49.016Z,78.01
2019-03-03T23:10:13.033Z,77.74
2019-03-03T23:13:16.949Z,77.64
2019-03-03T23:16:33.086Z,77.73
2019-03-03T23:20:09.551Z,77.64
2019-03-03T23:23:42.206Z,77.64
2019-03-03T23:26:28.077Z,77.54
2019-03-03T23:29:14.199Z,77.40
2019-03-03T23:32:01.694Z,77.79
2019-03-03T23:34:47.737Z,77.13
2019-03-03T23:37:37.177Z,77.25
2019-03-03T23:40:25.831Z,76.84
2019-03-03T23:43:13.073Z,76.78
2019-03-03T23:45:59.340Z,76.59
2019-03-03T23:48:51.265Z,76.18
2019-03-03T23:51:40.357Z,76.20
2019-03-03T23:54:26.745Z,75.96
2019-03-03T23:57:13.152Z,75.68
